Terminal Aerodrome Forecast
Issued by NWS Billings, MT

Home | Current Version | Previous Version | Graphics & Text | Print | Product List | Glossary Off
Versions: 1 2 3 4 5 6 7 8 9 10 11 12 13

000
FTUS45 KBYZ 251127
TAFMLS
TAF
KMLS 251127Z 2512/2612 16007KT P6SM SKC
     FM251600 33012KT P6SM FEW090
     FM260300 08008KT P6SM FEW090
     FM260900 16006KT P6SM FEW090=

USA.gov is the U.S. government's official web portal to all federal, state and local government web resources and services.